sensor_id;sensor_type;location;lat;lon;timestamp;pressure;altitude;pressure_sealevel;temperature;humidity
11672;BME280;5892;43.412;24.612;2022-10-30T00:00:05;100729.66;;;10.34;97.27
11672;BME280;5892;43.412;24.612;2022-10-30T00:02:32;100715.22;;;10.29;97.52
11672;BME280;5892;43.412;24.612;2022-10-30T00:04:59;100730.47;;;10.35;97.47
11672;BME280;5892;43.412;24.612;2022-10-30T00:07:25;100703.00;;;10.02;97.00
11672;BME280;5892;43.412;24.612;2022-10-30T00:09:52;100729.28;;;10.22;96.36
11672;BME280;5892;43.412;24.612;2022-10-30T00:12:19;100730.41;;;10.21;96.07
11672;BME280;5892;43.412;24.612;2022-10-30T00:14:46;100695.09;;;10.01;96.69
11672;BME280;5892;43.412;24.612;2022-10-30T00:17:14;100717.31;;;10.18;97.25
11672;BME280;5892;43.412;24.612;2022-10-30T00:19:41;100721.41;;;10.15;97.62
11672;BME280;5892;43.412;24.612;2022-10-30T00:22:08;100728.19;;;10.23;97.90
11672;BME280;5892;43.412;24.612;2022-10-30T00:24:35;100725.16;;;10.25;98.16
11672;BME280;5892;43.412;24.612;2022-10-30T00:27:02;100734.78;;;10.22;98.17
11672;BME280;5892;43.412;24.612;2022-10-30T00:29:29;100724.34;;;10.24;98.17
11672;BME280;5892;43.412;24.612;2022-10-30T00:31:56;100731.38;;;10.30;97.83
11672;BME280;5892;43.412;24.612;2022-10-30T00:34:24;100720.41;;;10.30;97.96
11672;BME280;5892;43.412;24.612;2022-10-30T00:36:51;100721.06;;;10.22;98.08
11672;BME280;5892;43.412;24.612;2022-10-30T00:39:18;100722.09;;;10.26;98.54
11672;BME280;5892;43.412;24.612;2022-10-30T00:41:44;100730.31;;;10.26;98.44
11672;BME280;5892;43.412;24.612;2022-10-30T00:44:40;100717.53;;;10.22;98.45
11672;BME280;5892;43.412;24.612;2022-10-30T00:47:12;100723.91;;;10.17;98.79
11672;BME280;5892;43.412;24.612;2022-10-30T00:49:49;100715.28;;;10.05;99.03
11672;BME280;5892;43.412;24.612;2022-10-30T00:52:19;100715.53;;;10.08;99.46
11672;BME280;5892;43.412;24.612;2022-10-30T00:54:48;100699.47;;;10.02;99.39
11672;BME280;5892;43.412;24.612;2022-10-30T00:57:15;100714.50;;;10.04;99.60
11672;BME280;5892;43.412;24.612;2022-10-30T00:59:44;100719.22;;;9.99;100.00
11672;BME280;5892;43.412;24.612;2022-10-30T01:02:11;100716.50;;;9.99;99.65
11672;BME280;5892;43.412;24.612;2022-10-30T01:04:38;100711.22;;;10.02;99.07
11672;BME280;5892;43.412;24.612;2022-10-30T01:07:10;100703.09;;;9.97;99.43
11672;BME280;5892;43.412;24.612;2022-10-30T01:09:38;100689.47;;;9.92;99.68
11672;BME280;5892;43.412;24.612;2022-10-30T01:12:06;100700.63;;;9.96;100.00
11672;BME280;5892;43.412;24.612;2022-10-30T01:14:35;100698.78;;;9.91;100.00
11672;BME280;5892;43.412;24.612;2022-10-30T01:17:23;100692.22;;;9.92;100.00
11672;BME280;5892;43.412;24.612;2022-10-30T01:20:01;100680.06;;;9.79;100.00
11672;BME280;5892;43.412;24.612;2022-10-30T01:22:45;100674.19;;;9.72;100.00
11672;BME280;5892;43.412;24.612;2022-10-30T01:25:27;100693.97;;;9.64;100.00
11672;BME280;5892;43.412;24.612;2022-10-30T01:28:04;100695.41;;;9.62;100.00
11672;BME280;5892;43.412;24.612;2022-10-30T01:30:42;100689.41;;;9.60;100.00
11672;BME280;5892;43.412;24.612;2022-10-30T01:33:22;100684.59;;;9.52;100.00
11672;BME280;5892;43.412;24.612;2022-10-30T01:35:58;100691.91;;;9.56;100.00
11672;BME280;5892;43.412;24.612;2022-10-30T01:38:31;100689.19;;;9.56;100.00
11672;BME280;5892;43.412;24.612;2022-10-30T01:41:00;100687.00;;;9.53;100.00
11672;BME280;5892;43.412;24.612;2022-10-30T01:43:27;100683.25;;;9.49;100.00
11672;BME280;5892;43.412;24.612;2022-10-30T01:46:09;100696.94;;;9.49;100.00
11672;BME280;5892;43.412;24.612;2022-10-30T01:49:00;100687.16;;;9.43;100.00
11672;BME280;5892;43.412;24.612;2022-10-30T01:51:42;100689.00;;;9.48;100.00
11672;BME280;5892;43.412;24.612;2022-10-30T01:54:20;100678.06;;;9.48;100.00
11672;BME280;5892;43.412;24.612;2022-10-30T01:56:56;100668.13;;;9.33;100.00
11672;BME280;5892;43.412;24.612;2022-10-30T01:59:29;100657.34;;;9.23;100.00
11672;BME280;5892;43.412;24.612;2022-10-30T02:01:57;100669.03;;;9.28;100.00
11672;BME280;5892;43.412;24.612;2022-10-30T02:04:24;100656.84;;;9.40;100.00
11672;BME280;5892;43.412;24.612;2022-10-30T02:06:52;100652.25;;;9.35;100.00
11672;BME280;5892;43.412;24.612;2022-10-30T02:09:20;100633.91;;;9.17;100.00
11672;BME280;5892;43.412;24.612;2022-10-30T02:11:48;100642.44;;;9.34;100.00
11672;BME280;5892;43.412;24.612;2022-10-30T02:14:22;100651.44;;;9.34;100.00
11672;BME280;5892;43.412;24.612;2022-10-30T02:16:52;100623.63;;;9.27;100.00
11672;BME280;5892;43.412;24.612;2022-10-30T02:19:20;100642.97;;;9.36;100.00
11672;BME280;5892;43.412;24.612;2022-10-30T02:21:49;100642.72;;;9.32;100.00
11672;BME280;5892;43.412;24.612;2022-10-30T02:24:16;100624.09;;;9.16;100.00
11672;BME280;5892;43.412;24.612;2022-10-30T02:26:43;100642.28;;;9.25;100.00
11672;BME280;5892;43.412;24.612;2022-10-30T02:29:10;100637.69;;;9.21;100.00
11672;BME280;5892;43.412;24.612;2022-10-30T02:31:37;100642.03;;;9.22;100.00
11672;BME280;5892;43.412;24.612;2022-10-30T02:34:04;100644.19;;;9.25;100.00
11672;BME280;5892;43.412;24.612;2022-10-30T02:36:30;100626.91;;;9.06;100.00
11672;BME280;5892;43.412;24.612;2022-10-30T02:38:59;100649.13;;;9.23;100.00
11672;BME280;5892;43.412;24.612;2022-10-30T02:41:26;100636.56;;;9.22;100.00
11672;BME280;5892;43.412;24.612;2022-10-30T02:43:53;100645.91;;;9.21;100.00
11672;BME280;5892;43.412;24.612;2022-10-30T02:46:20;100645.28;;;9.24;100.00
11672;BME280;5892;43.412;24.612;2022-10-30T02:48:47;100632.84;;;9.13;100.00
11672;BME280;5892;43.412;24.612;2022-10-30T02:51:13;100641.81;;;9.18;100.00
11672;BME280;5892;43.412;24.612;2022-10-30T02:53:40;100612.53;;;9.00;100.00
11672;BME280;5892;43.412;24.612;2022-10-30T02:56:10;100644.19;;;9.25;100.00
11672;BME280;5892;43.412;24.612;2022-10-30T02:58:38;100640.34;;;9.26;100.00
11672;BME280;5892;43.412;24.612;2022-10-30T03:01:06;100643.09;;;9.26;100.00
11672;BME280;5892;43.412;24.612;2022-10-30T03:03:34;100642.84;;;9.22;100.00
11672;BME280;5892;43.412;24.612;2022-10-30T03:06:01;100650.28;;;9.17;100.00
11672;BME280;5892;43.412;24.612;2022-10-30T03:08:29;100628.00;;;9.10;100.00
11672;BME280;5892;43.412;24.612;2022-10-30T03:11:00;100643.44;;;9.19;100.00
11672;BME280;5892;43.412;24.612;2022-10-30T03:13:29;100634.16;;;9.20;100.00
11672;BME280;5892;43.412;24.612;2022-10-30T03:16:00;100622.75;;;9.13;100.00
11672;BME280;5892;43.412;24.612;2022-10-30T03:18:27;100615.88;;;9.16;100.00
11672;BME280;5892;43.412;24.612;2022-10-30T03:20:56;100615.06;;;9.15;100.00
11672;BME280;5892;43.412;24.612;2022-10-30T03:23:23;100622.81;;;9.27;100.00
11672;BME280;5892;43.412;24.612;2022-10-30T03:25:54;100624.69;;;9.31;100.00
11672;BME280;5892;43.412;24.612;2022-10-30T03:28:22;100638.78;;;9.20;100.00
11672;BME280;5892;43.412;24.612;2022-10-30T03:30:51;100644.97;;;9.07;100.00
11672;BME280;5892;43.412;24.612;2022-10-30T03:33:23;100632.84;;;9.13;100.00
11672;BME280;5892;43.412;24.612;2022-10-30T03:35:50;100636.13;;;9.15;100.00
11672;BME280;5892;43.412;24.612;2022-10-30T03:38:17;100613.31;;;9.01;100.00
11672;BME280;5892;43.412;24.612;2022-10-30T03:40:44;100636.69;;;9.12;100.00
11672;BME280;5892;43.412;24.612;2022-10-30T03:43:11;100629.56;;;9.16;100.00
11672;BME280;5892;43.412;24.612;2022-10-30T03:45:38;100634.16;;;9.20;100.00
11672;BME280;5892;43.412;24.612;2022-10-30T03:48:07;100629.69;;;9.24;100.00
11672;BME280;5892;43.412;24.612;2022-10-30T03:50:34;100625.06;;;9.25;100.00
11672;BME280;5892;43.412;24.612;2022-10-30T03:53:01;100634.56;;;9.27;100.00
11672;BME280;5892;43.412;24.612;2022-10-30T03:55:27;100623.06;;;9.30;100.00
11672;BME280;5892;43.412;24.612;2022-10-30T03:57:54;100627.03;;;9.38;100.00
11672;BME280;5892;43.412;24.612;2022-10-30T04:00:21;100627.56;;;9.40;100.00
11672;BME280;5892;43.412;24.612;2022-10-30T04:02:50;100626.97;;;9.43;100.00
11672;BME280;5892;43.412;24.612;2022-10-30T04:05:21;100629.72;;;9.43;100.00
11672;BME280;5892;43.412;24.612;2022-10-30T04:07:54;100625.31;;;9.47;100.00
11672;BME280;5892;43.412;24.612;2022-10-30T04:10:21;100638.38;;;9.50;100.00
11672;BME280;5892;43.412;24.612;2022-10-30T04:12:48;100618.75;;;9.43;100.00
11672;BME280;5892;43.412;24.612;2022-10-30T04:15:15;100622.69;;;9.37;100.00
11672;BME280;5892;43.412;24.612;2022-10-30T04:17:47;100623.81;;;9.36;100.00
11672;BME280;5892;43.412;24.612;2022-10-30T04:20:15;100614.84;;;9.30;100.00
11672;BME280;5892;43.412;24.612;2022-10-30T04:22:44;100615.34;;;9.32;100.00
11672;BME280;5892;43.412;24.612;2022-10-30T04:25:11;100613.75;;;9.31;100.00
11672;BME280;5892;43.412;24.612;2022-10-30T04:27:39;100612.34;;;9.34;100.00
11672;BME280;5892;43.412;24.612;2022-10-30T04:30:07;100611.75;;;9.37;100.00
11672;BME280;5892;43.412;24.612;2022-10-30T04:32:35;100594.91;;;9.30;100.00
11672;BME280;5892;43.412;24.612;2022-10-30T04:35:02;100605.47;;;9.37;100.00
11672;BME280;5892;43.412;24.612;2022-10-30T04:37:29;100567.16;;;9.18;100.00
11672;BME280;5892;43.412;24.612;2022-10-30T04:39:58;100589.94;;;9.32;100.00
11672;BME280;5892;43.412;24.612;2022-10-30T04:42:24;100605.09;;;9.43;100.00
11672;BME280;5892;43.412;24.612;2022-10-30T04:44:51;100615.47;;;9.46;100.00
11672;BME280;5892;43.412;24.612;2022-10-30T04:47:18;100603.41;;;9.47;100.00
11672;BME280;5892;43.412;24.612;2022-10-30T04:49:45;100608.81;;;9.52;100.00
11672;BME280;5892;43.412;24.612;2022-10-30T04:52:12;100614.50;;;9.56;100.00
11672;BME280;5892;43.412;24.612;2022-10-30T04:54:39;100610.56;;;9.62;100.00
11672;BME280;5892;43.412;24.612;2022-10-30T04:57:07;100606.41;;;9.64;100.00
11672;BME280;5892;43.412;24.612;2022-10-30T04:59:34;100612.41;;;9.66;100.00
11672;BME280;5892;43.412;24.612;2022-10-30T05:02:00;100598.81;;;9.61;100.00
11672;BME280;5892;43.412;24.612;2022-10-30T05:04:27;100562.50;;;9.37;100.00
11672;BME280;5892;43.412;24.612;2022-10-30T05:06:54;100610.63;;;9.75;100.00
11672;BME280;5892;43.412;24.612;2022-10-30T05:09:21;100604.50;;;9.84;100.00
11672;BME280;5892;43.412;24.612;2022-10-30T05:11:48;100614.75;;;9.92;100.00
11672;BME280;5892;43.412;24.612;2022-10-30T05:14:16;100610.66;;;10.08;100.00
11672;BME280;5892;43.412;24.612;2022-10-30T05:16:43;100613.34;;;10.27;100.00
11672;BME280;5892;43.412;24.612;2022-10-30T05:19:10;100609.56;;;10.41;100.00
11672;BME280;5892;43.412;24.612;2022-10-30T05:21:37;100599.31;;;10.60;100.00
11672;BME280;5892;43.412;24.612;2022-10-30T05:24:04;100609.38;;;10.79;100.00
11672;BME280;5892;43.412;24.612;2022-10-30T05:26:31;100615.25;;;10.99;99.33
11672;BME280;5892;43.412;24.612;2022-10-30T05:28:58;100603.47;;;11.13;98.81
11672;BME280;5892;43.412;24.612;2022-10-30T05:31:26;100603.44;;;11.26;97.37
11672;BME280;5892;43.412;24.612;2022-10-30T05:33:53;100598.94;;;11.44;97.04
11672;BME280;5892;43.412;24.612;2022-10-30T05:36:20;100597.47;;;11.60;95.55
11672;BME280;5892;43.412;24.612;2022-10-30T05:38:47;100548.91;;;11.47;94.28
11672;BME280;5892;43.412;24.612;2022-10-30T05:41:14;100604.69;;;11.92;93.24
11672;BME280;5892;43.412;24.612;2022-10-30T05:43:40;100595.22;;;11.98;92.12
11672;BME280;5892;43.412;24.612;2022-10-30T05:46:07;100598.19;;;12.10;91.16
11672;BME280;5892;43.412;24.612;2022-10-30T05:48:35;100595.09;;;12.34;90.26
11672;BME280;5892;43.412;24.612;2022-10-30T05:51:03;100582.66;;;12.37;88.84
11672;BME280;5892;43.412;24.612;2022-10-30T05:53:31;100608.47;;;12.58;86.87
11672;BME280;5892;43.412;24.612;2022-10-30T05:55:58;100612.06;;;12.36;86.39
11672;BME280;5892;43.412;24.612;2022-10-30T05:58:25;100614.38;;;12.43;85.61
11672;BME280;5892;43.412;24.612;2022-10-30T06:00:52;100596.97;;;12.25;85.99
11672;BME280;5892;43.412;24.612;2022-10-30T06:03:18;100622.84;;;12.55;85.64
11672;BME280;5892;43.412;24.612;2022-10-30T06:05:47;100566.38;;;12.40;85.26
11672;BME280;5892;43.412;24.612;2022-10-30T06:08:14;100620.44;;;13.01;84.01
11672;BME280;5892;43.412;24.612;2022-10-30T06:10:42;100622.31;;;13.23;83.49
11672;BME280;5892;43.412;24.612;2022-10-30T06:13:10;100622.53;;;13.44;82.23
11672;BME280;5892;43.412;24.612;2022-10-30T06:15:37;100628.38;;;13.68;81.00
11672;BME280;5892;43.412;24.612;2022-10-30T06:18:03;100630.31;;;13.85;80.38
11672;BME280;5892;43.412;24.612;2022-10-30T06:20:30;100638.09;;;14.00;79.15
11672;BME280;5892;43.412;24.612;2022-10-30T06:23:01;100615.72;;;13.84;79.33
11672;BME280;5892;43.412;24.612;2022-10-30T06:25:30;100638.22;;;14.21;77.93
11672;BME280;5892;43.412;24.612;2022-10-30T06:27:57;100624.78;;;14.11;77.52
11672;BME280;5892;43.412;24.612;2022-10-30T06:30:24;100640.81;;;14.26;77.45
11672;BME280;5892;43.412;24.612;2022-10-30T06:32:55;100636.44;;;14.42;76.77
11672;BME280;5892;43.412;24.612;2022-10-30T06:35:23;100625.81;;;14.61;75.87
11672;BME280;5892;43.412;24.612;2022-10-30T06:37:50;100635.66;;;14.79;75.12
11672;BME280;5892;43.412;24.612;2022-10-30T06:40:19;100551.44;;;14.35;74.85
11672;BME280;5892;43.412;24.612;2022-10-30T06:42:47;100637.00;;;15.03;73.90
11672;BME280;5892;43.412;24.612;2022-10-30T06:45:15;100634.69;;;15.13;73.07
11672;BME280;5892;43.412;24.612;2022-10-30T06:47:43;100626.50;;;15.25;72.67
11672;BME280;5892;43.412;24.612;2022-10-30T06:50:11;100625.50;;;15.30;72.27
11672;BME280;5892;43.412;24.612;2022-10-30T06:52:39;100627.03;;;15.48;71.49
11672;BME280;5892;43.412;24.612;2022-10-30T06:55:07;100612.84;;;15.58;70.74
11672;BME280;5892;43.412;24.612;2022-10-30T06:57:35;100607.16;;;15.55;70.53
11672;BME280;5892;43.412;24.612;2022-10-30T07:00:04;100619.09;;;15.67;70.22
11672;BME280;5892;43.412;24.612;2022-10-30T07:02:31;100606.22;;;15.72;70.41
11672;BME280;5892;43.412;24.612;2022-10-30T07:04:58;100612.75;;;15.88;69.30
11672;BME280;5892;43.412;24.612;2022-10-30T07:07:25;100588.97;;;15.95;68.82
11672;BME280;5892;43.412;24.612;2022-10-30T07:09:52;100579.88;;;16.07;68.86
11672;BME280;5892;43.412;24.612;2022-10-30T07:12:19;100564.22;;;15.99;68.17
11672;BME280;5892;43.412;24.612;2022-10-30T07:14:47;100578.16;;;16.47;67.71
11672;BME280;5892;43.412;24.612;2022-10-30T07:17:14;100531.31;;;16.18;66.55
11672;BME280;5892;43.412;24.612;2022-10-30T07:19:41;100580.13;;;16.59;66.80
11672;BME280;5892;43.412;24.612;2022-10-30T07:22:08;100554.59;;;16.29;66.33
11672;BME280;5892;43.412;24.612;2022-10-30T07:24:35;100578.28;;;16.51;66.76
11672;BME280;5892;43.412;24.612;2022-10-30T07:27:02;100588.59;;;16.30;66.85
11672;BME280;5892;43.412;24.612;2022-10-30T07:29:29;100554.06;;;15.91;67.03
11672;BME280;5892;43.412;24.612;2022-10-30T07:31:58;100574.50;;;16.23;67.34
11672;BME280;5892;43.412;24.612;2022-10-30T07:34:25;100588.44;;;16.14;67.58
11672;BME280;5892;43.412;24.612;2022-10-30T07:36:52;100578.06;;;16.11;68.17
11672;BME280;5892;43.412;24.612;2022-10-30T07:39:19;100564.09;;;16.07;67.37
11672;BME280;5892;43.412;24.612;2022-10-30T07:41:47;100572.66;;;16.15;67.60
11672;BME280;5892;43.412;24.612;2022-10-30T07:44:14;100565.38;;;16.43;67.47
11672;BME280;5892;43.412;24.612;2022-10-30T07:46:41;100497.53;;;16.13;67.01
11672;BME280;5892;43.412;24.612;2022-10-30T07:49:09;100573.59;;;16.76;66.81
11672;BME280;5892;43.412;24.612;2022-10-30T07:51:37;100572.09;;;16.90;66.46
11672;BME280;5892;43.412;24.612;2022-10-30T07:54:03;100560.56;;;17.01;65.40
11672;BME280;5892;43.412;24.612;2022-10-30T07:56:30;100561.25;;;17.10;64.93
11672;BME280;5892;43.412;24.612;2022-10-30T07:58:57;100565.78;;;16.90;64.21
11672;BME280;5892;43.412;24.612;2022-10-30T08:01:24;100561.59;;;16.96;63.90
11672;BME280;5892;43.412;24.612;2022-10-30T08:03:51;100563.69;;;17.11;64.15
11672;BME280;5892;43.412;24.612;2022-10-30T08:06:19;100551.41;;;17.12;63.72
11672;BME280;5892;43.412;24.612;2022-10-30T08:08:46;100570.22;;;17.07;63.82
11672;BME280;5892;43.412;24.612;2022-10-30T08:11:13;100560.44;;;17.09;63.33
11672;BME280;5892;43.412;24.612;2022-10-30T08:13:40;100568.50;;;17.14;64.08
11672;BME280;5892;43.412;24.612;2022-10-30T08:16:07;100562.59;;;17.28;63.80
11672;BME280;5892;43.412;24.612;2022-10-30T08:18:34;100553.88;;;17.54;62.83
11672;BME280;5892;43.412;24.612;2022-10-30T08:21:03;100560.06;;;17.75;62.40
11672;BME280;5892;43.412;24.612;2022-10-30T08:23:31;100557.47;;;17.94;60.80
11672;BME280;5892;43.412;24.612;2022-10-30T08:25:58;100558.19;;;18.07;60.17
11672;BME280;5892;43.412;24.612;2022-10-30T08:28:26;100562.25;;;18.25;59.76
11672;BME280;5892;43.412;24.612;2022-10-30T08:30:53;100566.19;;;18.24;59.39
11672;BME280;5892;43.412;24.612;2022-10-30T08:33:20;100559.78;;;18.51;58.99
11672;BME280;5892;43.412;24.612;2022-10-30T08:35:47;100560.78;;;18.59;58.21
11672;BME280;5892;43.412;24.612;2022-10-30T08:38:15;100558.72;;;18.72;57.57
11672;BME280;5892;43.412;24.612;2022-10-30T08:40:44;100556.63;;;18.53;57.69
11672;BME280;5892;43.412;24.612;2022-10-30T08:43:11;100551.56;;;18.71;57.39
11672;BME280;5892;43.412;24.612;2022-10-30T08:45:38;100551.72;;;18.93;56.83
11672;BME280;5892;43.412;24.612;2022-10-30T08:48:05;100525.81;;;18.89;55.35
11672;BME280;5892;43.412;24.612;2022-10-30T08:50:33;100524.56;;;19.22;55.38
11672;BME280;5892;43.412;24.612;2022-10-30T08:53:01;100543.88;;;19.50;54.32
11672;BME280;5892;43.412;24.612;2022-10-30T08:55:28;100523.84;;;19.60;54.14
11672;BME280;5892;43.412;24.612;2022-10-30T08:57:57;100540.88;;;19.97;52.56
11672;BME280;5892;43.412;24.612;2022-10-30T09:00:24;100531.66;;;20.15;51.54
11672;BME280;5892;43.412;24.612;2022-10-30T09:02:52;100521.09;;;20.44;50.29
11672;BME280;5892;43.412;24.612;2022-10-30T09:05:20;100532.63;;;20.68;49.29
11672;BME280;5892;43.412;24.612;2022-10-30T09:07:47;100530.50;;;20.85;48.88
11672;BME280;5892;43.412;24.612;2022-10-30T09:10:14;100520.03;;;21.04;47.55
11672;BME280;5892;43.412;24.612;2022-10-30T09:12:41;100518.34;;;21.23;47.10
11672;BME280;5892;43.412;24.612;2022-10-30T09:15:10;100518.88;;;21.32;46.51
11672;BME280;5892;43.412;24.612;2022-10-30T09:17:37;100513.53;;;21.49;46.03
11672;BME280;5892;43.412;24.612;2022-10-30T09:20:04;100514.16;;;21.66;46.11
11672;BME280;5892;43.412;24.612;2022-10-30T09:22:31;100496.75;;;21.79;45.79
11672;BME280;5892;43.412;24.612;2022-10-30T09:24:58;100486.91;;;21.89;45.27
11672;BME280;5892;43.412;24.612;2022-10-30T09:27:25;100505.53;;;22.15;44.92
11672;BME280;5892;43.412;24.612;2022-10-30T09:29:52;100501.28;;;22.28;44.08
11672;BME280;5892;43.412;24.612;2022-10-30T09:32:20;100493.75;;;22.35;43.89
11672;BME280;5892;43.412;24.612;2022-10-30T09:34:47;100489.84;;;22.44;43.34
11672;BME280;5892;43.412;24.612;2022-10-30T09:37:14;100479.16;;;22.53;43.05
11672;BME280;5892;43.412;24.612;2022-10-30T09:39:43;100475.63;;;22.63;42.98
11672;BME280;5892;43.412;24.612;2022-10-30T09:42:24;100455.28;;;22.62;42.78
11672;BME280;5892;43.412;24.612;2022-10-30T09:45:08;100475.34;;;22.75;42.75
11672;BME280;5892;43.412;24.612;2022-10-30T09:47:49;100469.78;;;22.78;42.33
11672;BME280;5892;43.412;24.612;2022-10-30T09:50:24;100463.47;;;22.89;42.73
11672;BME280;5892;43.412;24.612;2022-10-30T09:53:01;100457.16;;;23.02;42.58
11672;BME280;5892;43.412;24.612;2022-10-30T09:55:33;100452.41;;;23.13;41.83
11672;BME280;5892;43.412;24.612;2022-10-30T09:58:16;100443.69;;;23.22;41.76
11672;BME280;5892;43.412;24.612;2022-10-30T10:00:51;100438.91;;;23.22;41.19
11672;BME280;5892;43.412;24.612;2022-10-30T10:03:32;100438.16;;;23.36;41.10
11672;BME280;5892;43.412;24.612;2022-10-30T10:06:04;100422.19;;;23.44;40.84
11672;BME280;5892;43.412;24.612;2022-10-30T10:08:39;100422.25;;;23.58;39.73
11672;BME280;5892;43.412;24.612;2022-10-30T10:11:11;100415.47;;;23.66;40.45
11672;BME280;5892;43.412;24.612;2022-10-30T10:13:43;100417.88;;;23.68;39.25
11672;BME280;5892;43.412;24.612;2022-10-30T10:16:16;100411.09;;;23.72;39.35
11672;BME280;5892;43.412;24.612;2022-10-30T10:18:47;100417.09;;;23.74;39.53
11672;BME280;5892;43.412;24.612;2022-10-30T10:21:22;100407.91;;;23.88;39.85
11672;BME280;5892;43.412;24.612;2022-10-30T10:23:51;100403.53;;;23.83;39.18
11672;BME280;5892;43.412;24.612;2022-10-30T10:26:26;100406.34;;;23.90;38.54
11672;BME280;5892;43.412;24.612;2022-10-30T10:29:28;100393.53;;;23.89;38.39
11672;BME280;5892;43.412;24.612;2022-10-30T10:32:14;100397.53;;;24.02;38.16
11672;BME280;5892;43.412;24.612;2022-10-30T10:35:01;100398.38;;;24.21;37.66
11672;BME280;5892;43.412;24.612;2022-10-30T10:37:38;100403.16;;;24.17;38.14
11672;BME280;5892;43.412;24.612;2022-10-30T10:40:20;100394.00;;;24.23;37.68
11672;BME280;5892;43.412;24.612;2022-10-30T10:43:01;100389.56;;;24.26;38.17
11672;BME280;5892;43.412;24.612;2022-10-30T10:45:38;100390.38;;;24.30;37.53
11672;BME280;5892;43.412;24.612;2022-10-30T10:48:24;100386.75;;;24.29;37.16
11672;BME280;5892;43.412;24.612;2022-10-30T10:50:59;100376.78;;;24.32;36.18
11672;BME280;5892;43.412;24.612;2022-10-30T10:53:30;100385.97;;;24.32;36.44
11672;BME280;5892;43.412;24.612;2022-10-30T10:56:01;100379.16;;;24.30;35.95
11672;BME280;5892;43.412;24.612;2022-10-30T10:58:30;100373.19;;;24.28;36.45
11672;BME280;5892;43.412;24.612;2022-10-30T11:01:01;100365.56;;;24.25;36.32
11672;BME280;5892;43.412;24.612;2022-10-30T11:03:35;100383.16;;;24.29;36.80
11672;BME280;5892;43.412;24.612;2022-10-30T11:06:17;100375.97;;;24.28;36.70
11672;BME280;5892;43.412;24.612;2022-10-30T11:08:46;100365.56;;;24.25;36.76
11672;BME280;5892;43.412;24.612;2022-10-30T11:11:13;100378.38;;;24.19;37.10
11672;BME280;5892;43.412;24.612;2022-10-30T11:13:41;100366.34;;;24.15;37.24
11672;BME280;5892;43.412;24.612;2022-10-30T11:16:18;100355.16;;;24.25;37.63
11672;BME280;5892;43.412;24.612;2022-10-30T11:18:51;100343.97;;;24.32;38.04
11672;BME280;5892;43.412;24.612;2022-10-30T11:21:23;100346.75;;;24.43;37.45
11672;BME280;5892;43.412;24.612;2022-10-30T11:23:50;100337.94;;;24.48;37.17
11672;BME280;5892;43.412;24.612;2022-10-30T11:26:26;100346.34;;;24.41;35.94
11672;BME280;5892;43.412;24.612;2022-10-30T11:28:56;100335.91;;;24.45;36.39
11672;BME280;5892;43.412;24.612;2022-10-30T11:31:25;100313.94;;;24.36;36.55
11672;BME280;5892;43.412;24.612;2022-10-30T11:33:58;100331.16;;;24.35;36.42
11672;BME280;5892;43.412;24.612;2022-10-30T11:36:40;100326.34;;;24.32;36.87
11672;BME280;5892;43.412;24.612;2022-10-30T11:39:13;100325.16;;;24.33;36.93
11672;BME280;5892;43.412;24.612;2022-10-30T11:41:45;100328.75;;;24.37;37.18
11672;BME280;5892;43.412;24.612;2022-10-30T11:44:14;100315.94;;;24.29;37.07
11672;BME280;5892;43.412;24.612;2022-10-30T11:46:41;100322.38;;;24.33;37.36
11672;BME280;5892;43.412;24.612;2022-10-30T11:49:23;100303.56;;;24.30;37.96
11672;BME280;5892;43.412;24.612;2022-10-30T11:51:52;100316.75;;;24.33;37.68
11672;BME280;5892;43.412;24.612;2022-10-30T11:54:20;100309.56;;;24.39;37.92
11672;BME280;5892;43.412;24.612;2022-10-30T11:56:48;100315.91;;;24.46;37.97
11672;BME280;5892;43.412;24.612;2022-10-30T11:59:18;100290.34;;;24.37;37.34
11672;BME280;5892;43.412;24.612;2022-10-30T12:01:57;100278.75;;;24.39;37.27
11672;BME280;5892;43.412;24.612;2022-10-30T12:04:26;100308.28;;;24.51;37.74
11672;BME280;5892;43.412;24.612;2022-10-30T12:07:17;100301.50;;;24.52;38.08
11672;BME280;5892;43.412;24.612;2022-10-30T12:09:46;100303.09;;;24.53;37.48
11672;BME280;5892;43.412;24.612;2022-10-30T12:12:20;100295.09;;;24.51;36.94
11672;BME280;5892;43.412;24.612;2022-10-30T12:14:54;100288.69;;;24.54;36.70
11672;BME280;5892;43.412;24.612;2022-10-30T12:17:21;100274.31;;;24.41;36.74
11672;BME280;5892;43.412;24.612;2022-10-30T12:19:49;100278.31;;;24.44;36.51
11672;BME280;5892;43.412;24.612;2022-10-30T12:22:27;100290.31;;;24.48;36.54
11672;BME280;5892;43.412;24.612;2022-10-30T12:24:56;100287.91;;;24.39;36.49
11672;BME280;5892;43.412;24.612;2022-10-30T12:27:24;100289.53;;;24.37;36.86
11672;BME280;5892;43.412;24.612;2022-10-30T12:30:00;100269.94;;;24.30;36.77
11672;BME280;5892;43.412;24.612;2022-10-30T12:32:42;100291.13;;;24.34;36.60
11672;BME280;5892;43.412;24.612;2022-10-30T12:35:26;100296.31;;;24.43;36.93
11672;BME280;5892;43.412;24.612;2022-10-30T12:37:59;100291.56;;;24.33;36.75
11672;BME280;5892;43.412;24.612;2022-10-30T12:40:29;100281.56;;;24.28;37.15
11672;BME280;5892;43.412;24.612;2022-10-30T12:43:02;100282.34;;;24.36;36.60
11672;BME280;5892;43.412;24.612;2022-10-30T12:45:34;100284.72;;;24.41;37.07
11672;BME280;5892;43.412;24.612;2022-10-30T12:48:11;100271.13;;;24.29;36.75
11672;BME280;5892;43.412;24.612;2022-10-30T12:50:44;100280.75;;;24.38;36.52
11672;BME280;5892;43.412;24.612;2022-10-30T12:53:23;100284.72;;;24.41;37.03
11672;BME280;5892;43.412;24.612;2022-10-30T12:55:54;100271.16;;;24.32;36.90
11672;BME280;5892;43.412;24.612;2022-10-30T12:58:31;100263.56;;;24.26;37.18
11672;BME280;5892;43.412;24.612;2022-10-30T13:01:00;100273.56;;;24.27;37.30
11672;BME280;5892;43.412;24.612;2022-10-30T13:03:34;100282.34;;;24.15;37.98